sensor_id;sensor_type;location;lat;lon;timestamp;P1;durP1;ratioP1;P2;durP2;ratioP2
80586;SDS011;69943;20.850;106.728;2024-02-26T00:01:39;4.90;;;3.90;;
80586;SDS011;69943;20.850;106.728;2024-02-26T00:04:14;5.70;;;4.00;;
80586;SDS011;69943;20.850;106.728;2024-02-26T00:06:46;4.70;;;3.90;;
80586;SDS011;69943;20.850;106.728;2024-02-26T00:09:21;8.20;;;3.90;;
80586;SDS011;69943;20.850;106.728;2024-02-26T00:11:53;5.60;;;4.20;;
80586;SDS011;69943;20.850;106.728;2024-02-26T00:14:26;7.40;;;4.00;;
80586;SDS011;69943;20.850;106.728;2024-02-26T00:16:58;4.80;;;3.60;;
80586;SDS011;69943;20.850;106.728;2024-02-26T00:19:31;5.40;;;3.90;;
80586;SDS011;69943;20.850;106.728;2024-02-26T00:22:03;5.00;;;3.70;;
80586;SDS011;69943;20.850;106.728;2024-02-26T00:24:35;4.70;;;3.40;;
80586;SDS011;69943;20.850;106.728;2024-02-26T00:27:08;5.20;;;3.60;;
80586;SDS011;69943;20.850;106.728;2024-02-26T00:29:40;4.90;;;4.10;;
80586;SDS011;69943;20.850;106.728;2024-02-26T00:32:12;6.10;;;3.70;;
80586;SDS011;69943;20.850;106.728;2024-02-26T00:34:44;6.80;;;4.00;;
80586;SDS011;69943;20.850;106.728;2024-02-26T00:37:16;4.30;;;3.60;;
80586;SDS011;69943;20.850;106.728;2024-02-26T00:39:49;5.60;;;3.70;;
80586;SDS011;69943;20.850;106.728;2024-02-26T00:42:21;8.40;;;3.30;;
80586;SDS011;69943;20.850;106.728;2024-02-26T00:44:53;6.20;;;4.20;;
80586;SDS011;69943;20.850;106.728;2024-02-26T00:47:26;5.40;;;4.40;;
80586;SDS011;69943;20.850;106.728;2024-02-26T00:49:58;4.30;;;3.50;;
80586;SDS011;69943;20.850;106.728;2024-02-26T00:52:30;4.90;;;3.50;;
80586;SDS011;69943;20.850;106.728;2024-02-26T00:55:03;6.20;;;3.40;;
80586;SDS011;69943;20.850;106.728;2024-02-26T00:57:35;4.50;;;3.60;;
80586;SDS011;69943;20.850;106.728;2024-02-26T01:00:08;4.30;;;3.40;;
80586;SDS011;69943;20.850;106.728;2024-02-26T01:02:40;4.00;;;3.30;;
80586;SDS011;69943;20.850;106.728;2024-02-26T01:05:13;5.30;;;4.10;;
80586;SDS011;69943;20.850;106.728;2024-02-26T01:07:45;3.90;;;3.50;;
80586;SDS011;69943;20.850;106.728;2024-02-26T01:10:18;4.60;;;3.60;;
80586;SDS011;69943;20.850;106.728;2024-02-26T01:12:50;4.20;;;3.40;;
80586;SDS011;69943;20.850;106.728;2024-02-26T01:15:22;5.80;;;3.80;;
80586;SDS011;69943;20.850;106.728;2024-02-26T01:17:55;4.30;;;3.70;;
80586;SDS011;69943;20.850;106.728;2024-02-26T01:20:27;6.60;;;3.80;;
80586;SDS011;69943;20.850;106.728;2024-02-26T01:22:59;6.00;;;3.70;;
80586;SDS011;69943;20.850;106.728;2024-02-26T01:25:32;4.40;;;3.40;;
80586;SDS011;69943;20.850;106.728;2024-02-26T01:28:04;4.90;;;3.70;;
80586;SDS011;69943;20.850;106.728;2024-02-26T01:30:37;6.20;;;4.20;;
80586;SDS011;69943;20.850;106.728;2024-02-26T01:33:09;4.60;;;3.50;;
80586;SDS011;69943;20.850;106.728;2024-02-26T01:35:42;4.40;;;3.70;;
80586;SDS011;69943;20.850;106.728;2024-02-26T01:38:14;7.80;;;4.60;;
80586;SDS011;69943;20.850;106.728;2024-02-26T01:40:47;5.70;;;3.80;;
80586;SDS011;69943;20.850;106.728;2024-02-26T01:43:19;4.10;;;3.30;;
80586;SDS011;69943;20.850;106.728;2024-02-26T01:45:51;6.80;;;4.00;;
80586;SDS011;69943;20.850;106.728;2024-02-26T01:48:24;6.10;;;3.70;;
80586;SDS011;69943;20.850;106.728;2024-02-26T01:50:57;5.90;;;3.90;;
80586;SDS011;69943;20.850;106.728;2024-02-26T01:53:29;5.30;;;3.80;;
80586;SDS011;69943;20.850;106.728;2024-02-26T01:56:01;5.30;;;3.70;;
80586;SDS011;69943;20.850;106.728;2024-02-26T01:58:36;6.20;;;3.90;;
80586;SDS011;69943;20.850;106.728;2024-02-26T02:01:09;6.00;;;3.70;;
80586;SDS011;69943;20.850;106.728;2024-02-26T02:03:41;5.50;;;3.60;;
80586;SDS011;69943;20.850;106.728;2024-02-26T02:06:14;8.00;;;3.90;;
80586;SDS011;69943;20.850;106.728;2024-02-26T02:08:46;5.10;;;3.90;;
80586;SDS011;69943;20.850;106.728;2024-02-26T02:11:18;4.90;;;3.40;;
80586;SDS011;69943;20.850;106.728;2024-02-26T02:13:51;5.00;;;3.90;;
80586;SDS011;69943;20.850;106.728;2024-02-26T02:16:23;6.80;;;3.60;;
80586;SDS011;69943;20.850;106.728;2024-02-26T02:18:55;6.40;;;4.00;;
80586;SDS011;69943;20.850;106.728;2024-02-26T02:21:27;5.50;;;3.80;;
80586;SDS011;69943;20.850;106.728;2024-02-26T02:23:59;7.30;;;4.10;;
80586;SDS011;69943;20.850;106.728;2024-02-26T02:26:32;5.80;;;3.70;;
80586;SDS011;69943;20.850;106.728;2024-02-26T02:29:05;9.20;;;3.90;;
80586;SDS011;69943;20.850;106.728;2024-02-26T02:31:40;4.30;;;3.50;;
80586;SDS011;69943;20.850;106.728;2024-02-26T02:34:13;5.10;;;3.80;;
80586;SDS011;69943;20.850;106.728;2024-02-26T02:36:51;7.20;;;4.10;;
80586;SDS011;69943;20.850;106.728;2024-02-26T02:39:24;8.70;;;4.30;;
80586;SDS011;69943;20.850;106.728;2024-02-26T02:41:57;7.50;;;3.50;;
80586;SDS011;69943;20.850;106.728;2024-02-26T02:44:30;7.10;;;4.40;;
80586;SDS011;69943;20.850;106.728;2024-02-26T02:47:02;6.90;;;4.20;;
80586;SDS011;69943;20.850;106.728;2024-02-26T02:49:35;8.60;;;4.60;;
80586;SDS011;69943;20.850;106.728;2024-02-26T02:52:07;6.00;;;3.50;;
80586;SDS011;69943;20.850;106.728;2024-02-26T02:54:39;6.80;;;4.10;;
80586;SDS011;69943;20.850;106.728;2024-02-26T02:57:13;5.70;;;4.10;;
80586;SDS011;69943;20.850;106.728;2024-02-26T02:59:45;7.10;;;4.30;;
80586;SDS011;69943;20.850;106.728;2024-02-26T03:02:17;8.20;;;4.00;;
80586;SDS011;69943;20.850;106.728;2024-02-26T03:04:50;5.60;;;4.20;;
80586;SDS011;69943;20.850;106.728;2024-02-26T03:07:22;7.90;;;4.20;;
80586;SDS011;69943;20.850;106.728;2024-02-26T03:09:55;5.50;;;4.30;;
80586;SDS011;69943;20.850;106.728;2024-02-26T03:12:27;6.50;;;4.50;;
80586;SDS011;69943;20.850;106.728;2024-02-26T03:15:00;6.70;;;4.20;;
80586;SDS011;69943;20.850;106.728;2024-02-26T03:17:33;6.40;;;4.30;;
80586;SDS011;69943;20.850;106.728;2024-02-26T03:20:06;5.50;;;4.00;;
80586;SDS011;69943;20.850;106.728;2024-02-26T03:22:40;6.20;;;4.40;;
80586;SDS011;69943;20.850;106.728;2024-02-26T03:25:12;5.90;;;4.50;;
80586;SDS011;69943;20.850;106.728;2024-02-26T03:27:44;6.10;;;4.50;;
80586;SDS011;69943;20.850;106.728;2024-02-26T03:30:16;6.30;;;4.70;;
80586;SDS011;69943;20.850;106.728;2024-02-26T03:32:48;4.40;;;3.80;;
80586;SDS011;69943;20.850;106.728;2024-02-26T03:35:20;4.90;;;4.20;;
80586;SDS011;69943;20.850;106.728;2024-02-26T03:37:53;6.30;;;4.60;;
80586;SDS011;69943;20.850;106.728;2024-02-26T03:40:25;6.60;;;4.90;;
80586;SDS011;69943;20.850;106.728;2024-02-26T03:42:57;5.20;;;4.10;;
80586;SDS011;69943;20.850;106.728;2024-02-26T03:45:29;6.60;;;5.30;;
80586;SDS011;69943;20.850;106.728;2024-02-26T03:48:01;6.30;;;4.70;;
80586;SDS011;69943;20.850;106.728;2024-02-26T03:50:34;6.50;;;4.30;;
80586;SDS011;69943;20.850;106.728;2024-02-26T03:53:06;8.90;;;4.80;;
80586;SDS011;69943;20.850;106.728;2024-02-26T03:55:39;5.80;;;4.80;;
80586;SDS011;69943;20.850;106.728;2024-02-26T03:58:12;8.60;;;4.90;;
80586;SDS011;69943;20.850;106.728;2024-02-26T04:00:45;5.30;;;4.70;;
80586;SDS011;69943;20.850;106.728;2024-02-26T04:03:18;9.30;;;5.30;;
80586;SDS011;69943;20.850;106.728;2024-02-26T04:05:50;8.30;;;4.30;;
80586;SDS011;69943;20.850;106.728;2024-02-26T04:08:23;4.80;;;4.10;;
80586;SDS011;69943;20.850;106.728;2024-02-26T04:10:55;8.30;;;5.80;;
80586;SDS011;69943;20.850;106.728;2024-02-26T04:13:27;8.10;;;5.60;;
80586;SDS011;69943;20.850;106.728;2024-02-26T04:16:00;7.00;;;5.20;;
80586;SDS011;69943;20.850;106.728;2024-02-26T04:18:33;6.90;;;4.90;;
80586;SDS011;69943;20.850;106.728;2024-02-26T04:21:05;7.60;;;5.80;;
80586;SDS011;69943;20.850;106.728;2024-02-26T04:23:37;9.70;;;5.30;;
80586;SDS011;69943;20.850;106.728;2024-02-26T04:26:10;9.30;;;5.70;;
80586;SDS011;69943;20.850;106.728;2024-02-26T04:28:42;6.40;;;5.60;;
80586;SDS011;69943;20.850;106.728;2024-02-26T04:31:14;8.20;;;5.80;;
80586;SDS011;69943;20.850;106.728;2024-02-26T04:33:46;8.30;;;5.90;;
80586;SDS011;69943;20.850;106.728;2024-02-26T04:36:19;6.50;;;5.80;;
80586;SDS011;69943;20.850;106.728;2024-02-26T04:38:51;9.10;;;6.30;;
80586;SDS011;69943;20.850;106.728;2024-02-26T04:41:26;10.00;;;6.70;;
80586;SDS011;69943;20.850;106.728;2024-02-26T04:43:59;9.50;;;5.80;;
80586;SDS011;69943;20.850;106.728;2024-02-26T04:46:31;7.40;;;5.70;;
80586;SDS011;69943;20.850;106.728;2024-02-26T04:49:04;10.60;;;6.10;;
80586;SDS011;69943;20.850;106.728;2024-02-26T04:51:36;7.80;;;7.00;;
80586;SDS011;69943;20.850;106.728;2024-02-26T04:54:09;8.70;;;6.40;;
80586;SDS011;69943;20.850;106.728;2024-02-26T04:56:41;7.70;;;6.30;;
80586;SDS011;69943;20.850;106.728;2024-02-26T04:59:13;8.60;;;6.90;;
80586;SDS011;69943;20.850;106.728;2024-02-26T05:01:45;9.10;;;7.20;;
80586;SDS011;69943;20.850;106.728;2024-02-26T05:04:18;8.90;;;7.20;;
80586;SDS011;69943;20.850;106.728;2024-02-26T05:06:50;9.40;;;7.00;;
80586;SDS011;69943;20.850;106.728;2024-02-26T05:09:22;13.50;;;8.40;;
80586;SDS011;69943;20.850;106.728;2024-02-26T05:11:54;10.70;;;7.20;;
80586;SDS011;69943;20.850;106.728;2024-02-26T05:14:27;9.00;;;7.60;;
80586;SDS011;69943;20.850;106.728;2024-02-26T05:16:59;11.80;;;8.20;;
80586;SDS011;69943;20.850;106.728;2024-02-26T05:19:31;11.60;;;7.80;;
80586;SDS011;69943;20.850;106.728;2024-02-26T05:22:03;8.90;;;7.60;;
80586;SDS011;69943;20.850;106.728;2024-02-26T05:24:37;9.40;;;8.20;;
80586;SDS011;69943;20.850;106.728;2024-02-26T05:27:09;10.40;;;7.50;;
80586;SDS011;69943;20.850;106.728;2024-02-26T05:29:42;10.40;;;7.80;;
80586;SDS011;69943;20.850;106.728;2024-02-26T05:32:15;10.30;;;8.70;;
80586;SDS011;69943;20.850;106.728;2024-02-26T05:34:47;8.50;;;7.60;;
80586;SDS011;69943;20.850;106.728;2024-02-26T05:37:19;12.50;;;8.10;;
80586;SDS011;69943;20.850;106.728;2024-02-26T05:39:51;9.60;;;7.10;;
80586;SDS011;69943;20.850;106.728;2024-02-26T05:42:23;8.60;;;7.50;;
80586;SDS011;69943;20.850;106.728;2024-02-26T05:44:56;10.60;;;7.90;;
80586;SDS011;69943;20.850;106.728;2024-02-26T05:47:28;9.40;;;6.80;;
80586;SDS011;69943;20.850;106.728;2024-02-26T05:53:07;8.10;;;7.20;;
80586;SDS011;69943;20.850;106.728;2024-02-26T05:55:39;9.40;;;7.20;;
80586;SDS011;69943;20.850;106.728;2024-02-26T05:58:12;10.00;;;7.10;;
80586;SDS011;69943;20.850;106.728;2024-02-26T06:00:44;10.70;;;7.80;;
80586;SDS011;69943;20.850;106.728;2024-02-26T06:03:17;11.70;;;7.40;;
80586;SDS011;69943;20.850;106.728;2024-02-26T06:05:49;7.70;;;6.40;;
80586;SDS011;69943;20.850;106.728;2024-02-26T06:08:21;8.70;;;6.80;;
80586;SDS011;69943;20.850;106.728;2024-02-26T06:10:54;8.70;;;7.80;;
80586;SDS011;69943;20.850;106.728;2024-02-26T06:13:26;8.30;;;6.70;;
80586;SDS011;69943;20.850;106.728;2024-02-26T06:15:58;9.00;;;6.20;;
80586;SDS011;69943;20.850;106.728;2024-02-26T06:18:30;9.20;;;6.90;;
80586;SDS011;69943;20.850;106.728;2024-02-26T06:21:03;8.40;;;6.30;;
80586;SDS011;69943;20.850;106.728;2024-02-26T06:23:35;10.00;;;7.00;;
80586;SDS011;69943;20.850;106.728;2024-02-26T06:26:08;7.60;;;6.50;;
80586;SDS011;69943;20.850;106.728;2024-02-26T06:28:41;11.50;;;7.80;;
80586;SDS011;69943;20.850;106.728;2024-02-26T06:31:13;9.10;;;6.00;;
80586;SDS011;69943;20.850;106.728;2024-02-26T06:33:46;10.00;;;7.10;;
80586;SDS011;69943;20.850;106.728;2024-02-26T06:36:19;9.50;;;7.80;;
80586;SDS011;69943;20.850;106.728;2024-02-26T06:38:52;9.40;;;6.90;;
80586;SDS011;69943;20.850;106.728;2024-02-26T06:41:25;11.10;;;6.50;;
80586;SDS011;69943;20.850;106.728;2024-02-26T06:43:58;7.30;;;6.40;;
80586;SDS011;69943;20.850;106.728;2024-02-26T06:46:31;11.10;;;6.10;;
80586;SDS011;69943;20.850;106.728;2024-02-26T06:49:03;10.80;;;6.40;;
80586;SDS011;69943;20.850;106.728;2024-02-26T06:51:35;9.40;;;7.50;;
80586;SDS011;69943;20.850;106.728;2024-02-26T06:54:08;9.20;;;7.20;;
80586;SDS011;69943;20.850;106.728;2024-02-26T06:56:42;10.60;;;7.40;;
80586;SDS011;69943;20.850;106.728;2024-02-26T06:59:14;13.00;;;6.90;;
80586;SDS011;69943;20.850;106.728;2024-02-26T07:01:46;11.80;;;6.70;;
80586;SDS011;69943;20.850;106.728;2024-02-26T07:04:18;8.40;;;6.20;;
80586;SDS011;69943;20.850;106.728;2024-02-26T07:06:51;9.60;;;7.10;;
80586;SDS011;69943;20.850;106.728;2024-02-26T07:09:23;9.60;;;6.90;;
80586;SDS011;69943;20.850;106.728;2024-02-26T07:11:56;9.50;;;6.80;;
80586;SDS011;69943;20.850;106.728;2024-02-26T07:14:28;10.20;;;6.90;;
80586;SDS011;69943;20.850;106.728;2024-02-26T07:17:01;11.10;;;8.00;;
80586;SDS011;69943;20.850;106.728;2024-02-26T07:19:34;10.70;;;7.30;;
80586;SDS011;69943;20.850;106.728;2024-02-26T07:22:06;10.00;;;7.50;;
80586;SDS011;69943;20.850;106.728;2024-02-26T07:24:38;11.00;;;8.00;;
80586;SDS011;69943;20.850;106.728;2024-02-26T07:27:11;9.20;;;7.60;;
80586;SDS011;69943;20.850;106.728;2024-02-26T07:29:43;12.70;;;7.40;;
80586;SDS011;69943;20.850;106.728;2024-02-26T07:32:16;12.20;;;8.60;;
80586;SDS011;69943;20.850;106.728;2024-02-26T07:34:49;14.20;;;8.10;;
80586;SDS011;69943;20.850;106.728;2024-02-26T07:37:21;10.80;;;7.30;;
80586;SDS011;69943;20.850;106.728;2024-02-26T07:39:53;10.20;;;7.90;;
80586;SDS011;69943;20.850;106.728;2024-02-26T07:42:25;11.50;;;8.30;;
80586;SDS011;69943;20.850;106.728;2024-02-26T07:44:57;11.30;;;8.00;;
80586;SDS011;69943;20.850;106.728;2024-02-26T07:47:30;10.70;;;8.00;;
80586;SDS011;69943;20.850;106.728;2024-02-26T07:50:05;10.10;;;8.30;;
80586;SDS011;69943;20.850;106.728;2024-02-26T07:52:39;11.80;;;8.50;;
80586;SDS011;69943;20.850;106.728;2024-02-26T07:55:11;12.60;;;8.50;;
80586;SDS011;69943;20.850;106.728;2024-02-26T07:57:44;13.60;;;8.50;;
80586;SDS011;69943;20.850;106.728;2024-02-26T08:00:16;11.70;;;8.70;;
80586;SDS011;69943;20.850;106.728;2024-02-26T08:02:50;11.60;;;8.20;;
80586;SDS011;69943;20.850;106.728;2024-02-26T08:05:23;12.70;;;8.10;;
80586;SDS011;69943;20.850;106.728;2024-02-26T08:07:56;10.20;;;7.60;;
80586;SDS011;69943;20.850;106.728;2024-02-26T08:10:28;10.40;;;7.80;;
80586;SDS011;69943;20.850;106.728;2024-02-26T08:13:00;10.10;;;7.40;;
80586;SDS011;69943;20.850;106.728;2024-02-26T08:15:39;12.80;;;7.40;;
80586;SDS011;69943;20.850;106.728;2024-02-26T08:18:12;11.90;;;7.20;;
80586;SDS011;69943;20.850;106.728;2024-02-26T08:20:44;9.30;;;8.30;;
80586;SDS011;69943;20.850;106.728;2024-02-26T08:23:17;18.90;;;9.30;;
80586;SDS011;69943;20.850;106.728;2024-02-26T08:25:49;16.90;;;10.10;;
80586;SDS011;69943;20.850;106.728;2024-02-26T08:28:22;16.90;;;8.00;;
80586;SDS011;69943;20.850;106.728;2024-02-26T08:30:55;11.20;;;8.90;;
80586;SDS011;69943;20.850;106.728;2024-02-26T08:33:28;10.40;;;8.00;;
80586;SDS011;69943;20.850;106.728;2024-02-26T08:36:03;10.20;;;7.90;;
80586;SDS011;69943;20.850;106.728;2024-02-26T08:38:36;16.90;;;9.60;;
80586;SDS011;69943;20.850;106.728;2024-02-26T08:41:09;32.10;;;10.00;;
80586;SDS011;69943;20.850;106.728;2024-02-26T08:43:41;17.50;;;9.40;;
80586;SDS011;69943;20.850;106.728;2024-02-26T08:46:14;15.40;;;10.70;;
80586;SDS011;69943;20.850;106.728;2024-02-26T08:48:46;15.80;;;10.30;;
80586;SDS011;69943;20.850;106.728;2024-02-26T08:51:18;20.00;;;10.60;;
80586;SDS011;69943;20.850;106.728;2024-02-26T08:53:50;17.10;;;9.70;;
80586;SDS011;69943;20.850;106.728;2024-02-26T08:56:22;14.50;;;10.00;;
80586;SDS011;69943;20.850;106.728;2024-02-26T08:58:55;14.20;;;9.70;;
80586;SDS011;69943;20.850;106.728;2024-02-26T09:01:28;14.90;;;9.50;;
80586;SDS011;69943;20.850;106.728;2024-02-26T09:04:01;14.00;;;9.50;;
80586;SDS011;69943;20.850;106.728;2024-02-26T09:06:33;11.70;;;9.20;;
80586;SDS011;69943;20.850;106.728;2024-02-26T09:09:05;12.30;;;9.70;;
80586;SDS011;69943;20.850;106.728;2024-02-26T09:11:37;14.50;;;10.60;;
80586;SDS011;69943;20.850;106.728;2024-02-26T09:14:10;21.30;;;11.40;;
80586;SDS011;69943;20.850;106.728;2024-02-26T09:16:42;14.90;;;10.00;;
80586;SDS011;69943;20.850;106.728;2024-02-26T09:19:14;14.20;;;10.50;;
80586;SDS011;69943;20.850;106.728;2024-02-26T09:21:47;16.30;;;9.70;;
80586;SDS011;69943;20.850;106.728;2024-02-26T09:24:21;18.30;;;10.60;;
80586;SDS011;69943;20.850;106.728;2024-02-26T09:26:53;16.30;;;10.50;;
80586;SDS011;69943;20.850;106.728;2024-02-26T09:29:26;15.90;;;10.40;;
80586;SDS011;69943;20.850;106.728;2024-02-26T09:31:58;14.90;;;9.80;;
80586;SDS011;69943;20.850;106.728;2024-02-26T09:34:30;14.60;;;10.90;;
80586;SDS011;69943;20.850;106.728;2024-02-26T09:37:04;15.00;;;10.60;;
80586;SDS011;69943;20.850;106.728;2024-02-26T09:39:36;15.10;;;10.30;;
80586;SDS011;69943;20.850;106.728;2024-02-26T09:42:09;12.70;;;9.60;;
80586;SDS011;69943;20.850;106.728;2024-02-26T09:44:41;13.60;;;10.10;;
80586;SDS011;69943;20.850;106.728;2024-02-26T09:47:15;14.20;;;10.30;;
80586;SDS011;69943;20.850;106.728;2024-02-26T09:49:48;12.90;;;9.20;;
80586;SDS011;69943;20.850;106.728;2024-02-26T09:52:21;14.30;;;10.30;;
80586;SDS011;69943;20.850;106.728;2024-02-26T09:54:53;13.20;;;10.10;;
80586;SDS011;69943;20.850;106.728;2024-02-26T09:57:25;15.10;;;9.60;;
80586;SDS011;69943;20.850;106.728;2024-02-26T09:59:59;12.60;;;10.00;;
80586;SDS011;69943;20.850;106.728;2024-02-26T10:02:36;12.60;;;10.60;;
80586;SDS011;69943;20.850;106.728;2024-02-26T10:05:08;16.60;;;10.80;;
80586;SDS011;69943;20.850;106.728;2024-02-26T10:07:42;19.90;;;10.40;;
80586;SDS011;69943;20.850;106.728;2024-02-26T10:10:15;18.40;;;10.30;;
80586;SDS011;69943;20.850;106.728;2024-02-26T10:12:49;20.80;;;11.30;;
80586;SDS011;69943;20.850;106.728;2024-02-26T10:15:21;15.50;;;10.50;;
80586;SDS011;69943;20.850;106.728;2024-02-26T10:17:53;17.50;;;10.50;;
80586;SDS011;69943;20.850;106.728;2024-02-26T10:20:26;12.40;;;9.90;;
80586;SDS011;69943;20.850;106.728;2024-02-26T10:23:02;19.00;;;9.90;;
80586;SDS011;69943;20.850;106.728;2024-02-26T10:25:35;13.00;;;10.10;;
80586;SDS011;69943;20.850;106.728;2024-02-26T10:28:08;14.30;;;10.60;;
80586;SDS011;69943;20.850;106.728;2024-02-26T10:30:41;12.10;;;10.10;;
80586;SDS011;69943;20.850;106.728;2024-02-26T10:33:13;16.20;;;10.70;;
80586;SDS011;69943;20.850;106.728;2024-02-26T10:35:46;16.80;;;10.60;;
80586;SDS011;69943;20.850;106.728;2024-02-26T10:38:19;19.60;;;12.50;;
80586;SDS011;69943;20.850;106.728;2024-02-26T10:40:51;14.90;;;10.10;;
80586;SDS011;69943;20.850;106.728;2024-02-26T10:43:25;15.00;;;10.10;;
80586;SDS011;69943;20.850;106.728;2024-02-26T10:45:57;14.90;;;11.00;;
80586;SDS011;69943;20.850;106.728;2024-02-26T10:48:29;14.50;;;10.60;;
80586;SDS011;69943;20.850;106.728;2024-02-26T10:51:02;12.00;;;10.00;;
80586;SDS011;69943;20.850;106.728;2024-02-26T10:53:34;15.10;;;10.60;;
80586;SDS011;69943;20.850;106.728;2024-02-26T10:56:07;14.20;;;10.20;;
80586;SDS011;69943;20.850;106.728;2024-02-26T10:58:41;14.30;;;9.80;;
80586;SDS011;69943;20.850;106.728;2024-02-26T11:01:14;16.90;;;11.60;;
80586;SDS011;69943;20.850;106.728;2024-02-26T11:03:48;13.60;;;10.50;;
80586;SDS011;69943;20.850;106.728;2024-02-26T11:06:21;12.80;;;10.50;;
80586;SDS011;69943;20.850;106.728;2024-02-26T11:08:54;13.70;;;10.90;;
80586;SDS011;69943;20.850;106.728;2024-02-26T11:11:26;17.60;;;11.30;;
80586;SDS011;69943;20.850;106.728;2024-02-26T11:13:59;12.00;;;10.30;;
80586;SDS011;69943;20.850;106.728;2024-02-26T11:16:33;11.30;;;9.70;;
80586;SDS011;69943;20.850;106.728;2024-02-26T11:19:08;14.90;;;11.20;;
80586;SDS011;69943;20.850;106.728;2024-02-26T11:21:41;14.00;;;9.90;;
80586;SDS011;69943;20.850;106.728;2024-02-26T11:24:14;14.90;;;10.80;;
80586;SDS011;69943;20.850;106.728;2024-02-26T11:26:51;11.90;;;9.90;;
80586;SDS011;69943;20.850;106.728;2024-02-26T11:29:37;14.50;;;11.40;;
80586;SDS011;69943;20.850;106.728;2024-02-26T11:32:15;14.00;;;10.00;;
80586;SDS011;69943;20.850;106.728;2024-02-26T11:34:47;17.10;;;10.60;;
80586;SDS011;69943;20.850;106.728;2024-02-26T11:37:20;11.80;;;10.50;;
80586;SDS011;69943;20.850;106.728;2024-02-26T11:39:52;13.80;;;9.70;;
80586;SDS011;69943;20.850;106.728;2024-02-26T11:42:24;13.50;;;10.90;;
80586;SDS011;69943;20.850;106.728;2024-02-26T11:44:56;13.60;;;11.00;;
80586;SDS011;69943;20.850;106.728;2024-02-26T11:47:31;11.90;;;10.70;;
80586;SDS011;69943;20.850;106.728;2024-02-26T11:53:27;13.00;;;9.80;;
80586;SDS011;69943;20.850;106.728;2024-02-26T11:56:13;12.60;;;11.00;;
80586;SDS011;69943;20.850;106.728;2024-02-26T11:58:48;12.20;;;9.90;;
80586;SDS011;69943;20.850;106.728;2024-02-26T12:01:38;11.50;;;9.00;;
80586;SDS011;69943;20.850;106.728;2024-02-26T12:04:15;14.40;;;9.40;;
80586;SDS011;69943;20.850;106.728;2024-02-26T12:06:52;11.60;;;9.60;;
80586;SDS011;69943;20.850;106.728;2024-02-26T12:09:40;12.70;;;9.70;;
80586;SDS011;69943;20.850;106.728;2024-02-26T12:12:17;10.60;;;8.70;;
80586;SDS011;69943;20.850;106.728;2024-02-26T12:14:55;10.00;;;8.90;;
80586;SDS011;69943;20.850;106.728;2024-02-26T12:17:27;12.90;;;8.80;;
80586;SDS011;69943;20.850;106.728;2024-02-26T12:20:09;11.20;;;8.80;;
80586;SDS011;69943;20.850;106.728;2024-02-26T12:22:45;9.80;;;8.70;;
80586;SDS011;69943;20.850;106.728;2024-02-26T12:25:22;10.60;;;8.90;;
80586;SDS011;69943;20.850;106.728;2024-02-26T12:27:59;12.30;;;8.80;;
80586;SDS011;69943;20.850;106.728;2024-02-26T12:30:32;11.50;;;8.50;;
80586;SDS011;69943;20.850;106.728;2024-02-26T12:33:04;13.00;;;8.50;;
80586;SDS011;69943;20.850;106.728;2024-02-26T12:35:39;12.00;;;8.80;;
80586;SDS011;69943;20.850;106.728;2024-02-26T12:38:12;11.60;;;8.70;;
80586;SDS011;69943;20.850;106.728;2024-02-26T12:40:45;12.00;;;8.50;;
80586;SDS011;69943;20.850;106.728;2024-02-26T12:43:19;11.80;;;7.90;;
80586;SDS011;69943;20.850;106.728;2024-02-26T12:45:52;11.60;;;7.50;;
80586;SDS011;69943;20.850;106.728;2024-02-26T12:48:24;9.00;;;7.60;;
80586;SDS011;69943;20.850;106.728;2024-02-26T12:50:57;8.40;;;7.20;;
80586;SDS011;69943;20.850;106.728;2024-02-26T12:53:30;10.70;;;7.70;;
80586;SDS011;69943;20.850;106.728;2024-02-26T12:56:03;11.20;;;7.60;;
80586;SDS011;69943;20.850;106.728;2024-02-26T12:58:36;9.00;;;6.90;;
80586;SDS011;69943;20.850;106.728;2024-02-26T13:01:14;10.00;;;7.00;;
80586;SDS011;69943;20.850;106.728;2024-02-26T13:03:49;9.50;;;7.10;;
80586;SDS011;69943;20.850;106.728;2024-02-26T13:06:22;8.20;;;7.20;;
80586;SDS011;69943;20.850;106.728;2024-02-26T13:08:57;11.00;;;7.60;;
80586;SDS011;69943;20.850;106.728;2024-02-26T13:11:30;10.20;;;7.70;;
80586;SDS011;69943;20.850;106.728;2024-02-26T13:14:03;12.20;;;7.30;;
80586;SDS011;69943;20.850;106.728;2024-02-26T13:16:37;9.50;;;7.40;;
80586;SDS011;69943;20.850;106.728;2024-02-26T13:19:09;8.30;;;7.50;;
80586;SDS011;69943;20.850;106.728;2024-02-26T13:21:41;9.20;;;7.20;;
80586;SDS011;69943;20.850;106.728;2024-02-26T13:24:14;17.60;;;8.50;;
80586;SDS011;69943;20.850;106.728;2024-02-26T13:26:47;16.20;;;7.50;;
80586;SDS011;69943;20.850;106.728;2024-02-26T13:29:26;16.60;;;7.80;;
80586;SDS011;69943;20.850;106.728;2024-02-26T13:31:58;10.30;;;6.90;;
80586;SDS011;69943;20.850;106.728;2024-02-26T13:34:31;11.70;;;7.20;;
80586;SDS011;69943;20.850;106.728;2024-02-26T13:37:05;10.90;;;7.60;;
80586;SDS011;69943;20.850;106.728;2024-02-26T13:39:37;17.30;;;7.70;;
80586;SDS011;69943;20.850;106.728;2024-02-26T13:42:11;11.20;;;7.30;;
80586;SDS011;69943;20.850;106.728;2024-02-26T13:44:44;11.30;;;7.70;;
80586;SDS011;69943;20.850;106.728;2024-02-26T13:47:16;13.40;;;7.00;;
80586;SDS011;69943;20.850;106.728;2024-02-26T13:49:49;10.60;;;6.90;;
80586;SDS011;69943;20.850;106.728;2024-02-26T13:52:22;9.60;;;6.80;;
80586;SDS011;69943;20.850;106.728;2024-02-26T13:54:54;10.20;;;6.70;;
80586;SDS011;69943;20.850;106.728;2024-02-26T13:57:27;12.60;;;6.80;;
80586;SDS011;69943;20.850;106.728;2024-02-26T13:59:59;11.70;;;6.70;;
80586;SDS011;69943;20.850;106.728;2024-02-26T14:02:32;10.60;;;6.50;;
80586;SDS011;69943;20.850;106.728;2024-02-26T14:05:07;10.20;;;6.80;;
80586;SDS011;69943;20.850;106.728;2024-02-26T14:07:39;7.50;;;5.80;;
80586;SDS011;69943;20.850;106.728;2024-02-26T14:10:12;10.40;;;6.20;;
80586;SDS011;69943;20.850;106.728;2024-02-26T14:12:46;12.10;;;6.60;;
80586;SDS011;69943;20.850;106.728;2024-02-26T14:15:19;13.30;;;6.80;;
80586;SDS011;69943;20.850;106.728;2024-02-26T14:17:52;10.00;;;6.30;;
80586;SDS011;69943;20.850;106.728;2024-02-26T14:20:27;9.60;;;6.50;;
80586;SDS011;69943;20.850;106.728;2024-02-26T14:22:59;10.70;;;5.70;;
80586;SDS011;69943;20.850;106.728;2024-02-26T14:25:31;8.00;;;5.50;;
80586;SDS011;69943;20.850;106.728;2024-02-26T14:28:04;9.10;;;6.30;;
80586;SDS011;69943;20.850;106.728;2024-02-26T14:30:37;7.40;;;5.40;;
80586;SDS011;69943;20.850;106.728;2024-02-26T14:33:09;8.30;;;6.00;;
80586;SDS011;69943;20.850;106.728;2024-02-26T14:35:42;7.70;;;5.40;;
80586;SDS011;69943;20.850;106.728;2024-02-26T14:38:17;8.50;;;5.80;;
80586;SDS011;69943;20.850;106.728;2024-02-26T14:40:49;6.60;;;5.40;;
80586;SDS011;69943;20.850;106.728;2024-02-26T14:43:21;9.10;;;5.50;;
80586;SDS011;69943;20.850;106.728;2024-02-26T14:45:54;10.90;;;5.30;;
80586;SDS011;69943;20.850;106.728;2024-02-26T14:48:27;8.90;;;5.80;;
80586;SDS011;69943;20.850;106.728;2024-02-26T14:51:01;11.40;;;5.70;;
80586;SDS011;69943;20.850;106.728;2024-02-26T14:53:33;8.40;;;5.40;;